Time;durP1;ratioP1;P1;durP2;ratioP2;P2;SDS_P1;SDS_P2;PMS_P1;PMS_P2;Temp;Humidity;BMP_temperature;BMP_pressure;BME280_temperature;BME280_humidity;BME280_pressure;Samples;Min_cycle;Max_cycle;Signal;HPM_P1;HPM_P2
2022/10/20 00:01:36;;;;;;;3.07;2.13;;;4.60;99.90;;;;;;4985170;28;20488;-52
2022/10/20 00:04:03;;;;;;;5.13;2.10;;;4.50;98.70;;;;;;4989771;28;20522;-52
2022/10/20 00:06:32;;;;;;;1.87;1.77;;;4.50;99.90;;;;;;4991923;28;20520;-52
2022/10/20 00:09:01;;;;;;;3.17;2.00;;;4.50;99.90;;;;;;4991705;28;20516;-53
2022/10/20 00:11:28;;;;;;;1.70;1.60;;;4.50;99.90;;;;;;4987639;28;20468;-52
2022/10/20 00:13:57;;;;;;;2.23;1.87;;;4.50;99.90;;;;;;4987653;28;20457;-52
2022/10/20 00:16:25;;;;;;;2.03;1.93;;;4.50;99.90;;;;;;4989173;28;20523;-52
2022/10/20 00:18:52;;;;;;;2.23;2.03;;;4.50;99.90;;;;;;4990467;28;20570;-52
2022/10/20 00:21:23;;;;;;;2.03;1.77;;;4.50;99.90;;;;;;4991108;28;20500;-52
2022/10/20 00:23:50;;;;;;;3.00;2.80;;;4.60;99.90;;;;;;4987600;28;20469;-52
2022/10/20 00:26:19;;;;;;;2.60;1.90;;;4.50;99.90;;;;;;4985275;28;20875;-52
2022/10/20 00:28:46;;;;;;;2.13;1.73;;;4.50;99.90;;;;;;4990952;28;20917;-52
2022/10/20 00:31:13;;;;;;;1.80;1.70;;;4.50;99.90;;;;;;4989168;28;20489;-51
2022/10/20 00:33:40;;;;;;;1.90;1.80;;;4.60;99.90;;;;;;4989001;28;20492;-51
2022/10/20 00:36:08;;;;;;;2.00;1.87;;;4.50;99.90;;;;;;4992146;28;21009;-52
2022/10/20 00:38:36;;;;;;;4.60;1.80;;;4.60;99.90;;;;;;4992449;28;20554;-52
2022/10/20 00:41:03;;;;;;;12.33;1.97;;;4.50;99.90;;;;;;4993359;28;20895;-52
2022/10/20 00:43:42;;;;;;;1.60;1.50;;;4.50;99.90;;;;;;4990588;28;20650;-50
2022/10/20 00:46:11;;;;;;;2.80;2.30;;;4.50;99.90;;;;;;4992453;28;20492;-50
2022/10/20 00:48:38;;;;;;;2.30;1.90;;;4.40;99.90;;;;;;4989188;28;20488;-50
2022/10/20 00:51:06;;;;;;;2.30;2.03;;;4.40;99.90;;;;;;4991965;28;20942;-50
2022/10/20 00:53:33;;;;;;;3.10;2.30;;;4.40;99.90;;;;;;4991316;28;20492;-50
2022/10/20 00:56:01;;;;;;;2.37;2.17;;;4.50;99.90;;;;;;4991161;28;20500;-50
2022/10/20 00:58:28;;;;;;;3.10;1.60;;;4.50;99.90;;;;;;4992278;28;20484;-50
2022/10/20 01:00:59;;;;;;;3.40;2.60;;;4.60;99.90;;;;;;4993447;28;20983;-50
2022/10/20 01:03:30;;;;;;;4.20;2.07;;;4.60;99.90;;;;;;4992142;28;20481;-50
2022/10/20 01:05:56;;;;;;;1.77;1.50;;;4.60;99.90;;;;;;4992290;28;20492;-50
2022/10/20 01:08:23;;;;;;;2.13;1.97;;;4.60;99.90;;;;;;4993314;28;20497;-50
2022/10/20 01:11:01;;;;;;;2.03;1.93;;;4.60;99.90;;;;;;4988406;28;20472;-50
2022/10/20 01:13:39;;;;;;;2.10;2.00;;;4.60;99.90;;;;;;4990884;28;20807;-50
2022/10/20 01:16:16;;;;;;;8.60;2.03;;;4.60;99.90;;;;;;4993059;28;20453;-50
2022/10/20 01:18:53;;;;;;;2.60;2.27;;;4.60;99.90;;;;;;4990385;28;20945;-49
2022/10/20 01:21:43;;;;;;;2.47;2.27;;;4.60;99.90;;;;;;4990836;28;20499;-49
2022/10/20 01:24:30;;;;;;;2.10;1.90;;;4.60;99.90;;;;;;4990797;28;20464;-48
2022/10/20 01:27:26;;;;;;;11.73;1.90;;;4.60;99.90;;;;;;4991993;28;20846;-50
2022/10/20 01:29:59;;;;;;;2.30;2.10;;;4.50;99.90;;;;;;4991599;28;20465;-50
2022/10/20 01:32:35;;;;;;;2.40;1.90;;;4.50;99.90;;;;;;4984662;28;20642;-49
2022/10/20 01:35:09;;;;;;;2.37;2.17;;;4.50;99.90;;;;;;4989163;28;20867;-50
2022/10/20 01:37:40;;;;;;;2.30;2.20;;;4.50;99.90;;;;;;4992796;28;20519;-49
2022/10/20 01:40:16;;;;;;;5.03;1.93;;;4.50;99.90;;;;;;4988314;28;20500;-49
2022/10/20 01:42:45;;;;;;;2.00;1.90;;;4.50;99.90;;;;;;4986212;28;20586;-50
2022/10/20 01:45:16;;;;;;;2.30;2.17;;;4.50;99.90;;;;;;4990906;28;20492;-50
2022/10/20 01:47:44;;;;;;;2.63;2.43;;;4.50;99.90;;;;;;4990141;28;21065;-49
2022/10/20 01:50:14;;;;;;;2.27;2.17;;;4.50;99.90;;;;;;4990909;28;20515;-49
2022/10/20 01:52:40;;;;;;;2.43;2.17;;;4.50;99.90;;;;;;4992898;28;20472;-49
2022/10/20 01:55:13;;;;;;;2.80;2.27;;;4.50;99.90;;;;;;4991385;28;20456;-49
2022/10/20 01:57:53;;;;;;;10.10;2.43;;;4.50;99.90;;;;;;4988587;28;20491;-49
2022/10/20 02:00:20;;;;;;;2.63;2.33;;;4.60;99.90;;;;;;4989887;28;20492;-48
2022/10/20 02:03:05;;;;;;;6.70;2.30;;;4.60;99.90;;;;;;4991007;28;20516;-50
2022/10/20 02:05:50;;;;;;;5.17;1.97;;;4.60;99.90;;;;;;4985381;28;20492;-49
2022/10/20 02:08:23;;;;;;;5.13;2.47;;;4.70;99.90;;;;;;4990441;28;20476;-49
2022/10/20 02:10:52;;;;;;;2.90;2.60;;;4.60;99.90;;;;;;4991473;28;20883;-50
2022/10/20 02:13:21;;;;;;;3.60;2.67;;;4.70;99.90;;;;;;4989305;28;20527;-48
2022/10/20 02:15:52;;;;;;;5.10;1.90;;;4.70;99.90;;;;;;4987610;28;20496;-49
2022/10/20 02:18:22;;;;;;;4.87;2.40;;;4.70;99.90;;;;;;4990026;28;20997;-50
2022/10/20 02:20:52;;;;;;;2.57;2.37;;;4.60;99.90;;;;;;4990160;28;20509;-50
2022/10/20 02:23:19;;;;;;;2.43;2.07;;;4.70;99.90;;;;;;4990143;28;20561;-48
2022/10/20 02:25:48;;;;;;;2.30;2.10;;;4.70;99.90;;;;;;4990355;28;20528;-50
2022/10/20 02:28:16;;;;;;;2.53;2.33;;;4.60;84.50;;;;;;4991456;28;20873;-50
2022/10/20 02:30:45;;;;;;;2.70;2.00;;;4.60;87.70;;;;;;4985943;28;20515;-49
2022/10/20 02:33:13;;;;;;;2.30;2.10;;;4.60;99.90;;;;;;4989132;28;20496;-50
2022/10/20 02:35:48;;;;;;;6.80;2.00;;;4.70;99.90;;;;;;4991950;28;20492;-49
2022/10/20 02:38:14;;;;;;;2.67;1.93;;;4.60;91.50;;;;;;4989442;28;20492;-49
2022/10/20 02:40:41;;;;;;;2.57;2.07;;;4.50;26.50;;;;;;4990736;28;20492;-49
2022/10/20 02:43:08;;;;;;;2.77;2.27;;;4.50;26.40;;;;;;4989305;28;20531;-51
2022/10/20 02:45:34;;;;;;;2.30;2.10;;;4.50;20.70;;;;;;4987403;28;20488;-52
2022/10/20 02:48:02;;;;;;;2.33;2.23;;;4.40;24.70;;;;;;4991425;28;20593;-49
2022/10/20 02:50:28;;;;;;;8.00;2.57;;;4.40;25.70;;;;;;4990301;28;20467;-50
2022/10/20 02:52:55;;;;;;;3.23;2.00;;;4.40;87.20;;;;;;4986803;28;20508;-49
2022/10/20 02:55:22;;;;;;;2.00;1.90;;;4.40;99.90;;;;;;4988398;28;20507;-49
2022/10/20 02:57:48;;;;;;;6.23;2.20;;;4.40;81.70;;;;;;4990348;28;20520;-48
2022/10/20 03:00:15;;;;;;;3.10;2.07;;;4.40;99.90;;;;;;4988897;28;20496;-49
2022/10/20 03:02:41;;;;;;;6.10;2.57;;;4.30;99.90;;;;;;4987057;28;20928;-49
2022/10/20 03:05:10;;;;;;;2.27;2.07;;;4.40;99.90;;;;;;4990855;28;20460;-49
2022/10/20 03:07:36;;;;;;;2.60;2.50;;;4.30;99.90;;;;;;4990075;28;20489;-49
2022/10/20 03:10:03;;;;;;;2.30;2.00;;;4.30;99.90;;;;;;4990272;28;20496;-49
2022/10/20 03:12:30;;;;;;;3.57;2.17;;;4.30;99.90;;;;;;4990639;28;20539;-48
2022/10/20 03:14:56;;;;;;;4.90;2.27;;;4.40;99.90;;;;;;4986756;28;20499;-49
2022/10/20 03:17:23;;;;;;;2.43;2.23;;;4.40;99.90;;;;;;4990807;28;20519;-49
2022/10/20 03:19:50;;;;;;;2.10;2.00;;;4.30;96.30;;;;;;4990121;28;20495;-49
2022/10/20 03:22:17;;;;;;;2.27;2.13;;;4.30;99.90;;;;;;4989918;28;20496;-50
2022/10/20 03:24:44;;;;;;;3.07;2.33;;;4.30;99.90;;;;;;4988385;28;20551;-50
2022/10/20 03:27:10;;;;;;;2.73;2.53;;;4.30;99.90;;;;;;4988747;28;20520;-49
2022/10/20 03:29:37;;;;;;;3.60;2.30;;;4.30;99.90;;;;;;4987982;28;20551;-49
2022/10/20 03:32:04;;;;;;;2.77;2.57;;;4.30;99.90;;;;;;4989478;28;20496;-49
2022/10/20 03:34:30;;;;;;;8.20;2.30;;;4.20;99.90;;;;;;4990078;28;20492;-49
2022/10/20 03:36:57;;;;;;;2.67;2.43;;;4.20;99.90;;;;;;4989688;28;20492;-49
2022/10/20 03:39:25;;;;;;;2.40;1.90;;;4.20;99.90;;;;;;4988977;28;20512;-49
2022/10/20 03:41:51;;;;;;;4.70;2.70;;;4.20;99.90;;;;;;4984059;28;20562;-50
2022/10/20 03:44:18;;;;;;;2.13;2.03;;;4.30;99.90;;;;;;4988840;28;20547;-50
2022/10/20 03:46:44;;;;;;;2.77;2.33;;;4.20;99.90;;;;;;4988900;28;20492;-50
2022/10/20 03:49:11;;;;;;;2.53;2.33;;;4.30;99.90;;;;;;4989757;28;20492;-49
2022/10/20 03:51:38;;;;;;;5.37;2.63;;;4.30;99.90;;;;;;4989113;28;20492;-49
2022/10/20 03:54:04;;;;;;;3.17;2.77;;;4.30;99.90;;;;;;4990370;28;20492;-49
2022/10/20 03:56:32;;;;;;;2.43;2.33;;;4.40;99.90;;;;;;4988189;28;20519;-50
2022/10/20 03:58:59;;;;;;;2.77;2.57;;;4.30;99.90;;;;;;4988528;28;21052;-50
2022/10/20 04:01:29;;;;;;;3.00;2.40;;;4.30;99.90;;;;;;4987332;28;20511;-50
2022/10/20 04:03:56;;;;;;;3.07;2.80;;;4.30;99.90;;;;;;4986400;28;21897;-50
2022/10/20 04:06:23;;;;;;;7.73;2.77;;;4.30;99.90;;;;;;4989752;28;20475;-49
2022/10/20 04:08:49;;;;;;;2.57;2.37;;;4.30;99.90;;;;;;4989397;28;20516;-49
2022/10/20 04:11:16;;;;;;;3.30;2.77;;;4.30;99.90;;;;;;4985194;28;20535;-49
2022/10/20 04:13:44;;;;;;;3.00;2.73;;;4.20;99.90;;;;;;4986235;28;20468;-49
2022/10/20 04:16:10;;;;;;;2.63;2.43;;;4.20;99.90;;;;;;4987843;28;20523;-49
2022/10/20 04:18:37;;;;;;;3.30;2.43;;;4.20;99.90;;;;;;4989386;28;20499;-49
2022/10/20 04:21:04;;;;;;;8.27;3.03;;;4.20;99.90;;;;;;4987357;28;20456;-50
2022/10/20 04:23:30;;;;;;;3.13;2.80;;;4.30;99.90;;;;;;4989502;28;20534;-50
2022/10/20 04:25:57;;;;;;;4.47;2.60;;;4.30;99.90;;;;;;4987504;28;20520;-50
2022/10/20 04:28:24;;;;;;;4.17;2.60;;;4.20;99.90;;;;;;4988896;28;20582;-49
2022/10/20 04:30:51;;;;;;;5.40;3.07;;;4.20;99.90;;;;;;4988875;28;20460;-49
2022/10/20 04:33:18;;;;;;;5.30;2.57;;;4.20;99.90;;;;;;4987278;28;20460;-52
2022/10/20 04:35:45;;;;;;;5.00;3.60;;;4.20;99.90;;;;;;4988078;28;20904;-52
2022/10/20 04:38:11;;;;;;;5.40;2.67;;;4.20;99.90;;;;;;4987598;28;20499;-51
2022/10/20 04:40:38;;;;;;;3.20;2.90;;;4.20;99.90;;;;;;4990208;28;20495;-52
2022/10/20 04:43:04;;;;;;;4.00;2.97;;;4.20;99.90;;;;;;4990655;28;20523;-52
2022/10/20 04:45:31;;;;;;;3.80;2.40;;;4.20;99.90;;;;;;4989970;28;20461;-52
2022/10/20 04:47:59;;;;;;;5.00;3.37;;;4.20;99.90;;;;;;4989377;28;20515;-52
2022/10/20 04:50:25;;;;;;;5.30;2.90;;;4.20;99.90;;;;;;4989924;28;20456;-53
2022/10/20 04:52:52;;;;;;;3.80;3.00;;;4.20;99.90;;;;;;4990170;28;20491;-52
2022/10/20 04:55:19;;;;;;;3.03;2.80;;;4.20;99.90;;;;;;4991653;28;20554;-52
2022/10/20 04:57:45;;;;;;;3.60;3.30;;;4.20;99.90;;;;;;4988807;28;20519;-52
2022/10/20 05:00:13;;;;;;;4.40;3.27;;;4.20;99.90;;;;;;4988216;28;20461;-52
2022/10/20 05:02:39;;;;;;;3.03;2.67;;;4.10;99.90;;;;;;4989084;28;20500;-52
2022/10/20 05:05:09;;;;;;;3.30;3.00;;;4.10;99.90;;;;;;4988160;28;20562;-52
2022/10/20 05:07:35;;;;;;;3.30;2.57;;;4.00;99.90;;;;;;4986014;28;20543;-52
2022/10/20 05:10:02;;;;;;;3.87;2.83;;;3.90;99.90;;;;;;4983121;28;20558;-51
2022/10/20 05:12:28;;;;;;;3.30;3.00;;;4.00;99.90;;;;;;4993031;28;20471;-51
2022/10/20 05:14:55;;;;;;;6.93;3.40;;;4.00;99.90;;;;;;4987679;28;20488;-52
2022/10/20 05:17:21;;;;;;;8.23;2.93;;;3.90;99.90;;;;;;4992944;28;21064;-52
2022/10/20 05:19:48;;;;;;;3.10;2.90;;;3.90;99.90;;;;;;4994816;28;20468;-53
2022/10/20 05:22:16;;;;;;;3.60;3.10;;;3.90;99.90;;;;;;4991171;28;20464;-52
2022/10/20 05:24:42;;;;;;;3.03;2.83;;;3.90;99.90;;;;;;4991740;28;20531;-52
2022/10/20 05:27:09;;;;;;;3.00;2.80;;;3.90;99.90;;;;;;4994382;28;20511;-51
2022/10/20 05:29:36;;;;;;;5.00;3.70;;;3.90;99.90;;;;;;4990577;28;20464;-51
2022/10/20 05:32:02;;;;;;;6.30;3.07;;;3.90;99.90;;;;;;4987987;28;20491;-52
2022/10/20 05:34:29;;;;;;;3.00;2.70;;;3.90;99.90;;;;;;4988417;28;20484;-51
2022/10/20 05:36:55;;;;;;;4.27;2.90;;;3.80;99.90;;;;;;4986696;28;20495;-52
2022/10/20 05:39:23;;;;;;;4.97;3.10;;;3.90;99.90;;;;;;4987176;28;20499;-52
2022/10/20 05:41:50;;;;;;;9.23;3.27;;;3.90;99.90;;;;;;4989458;28;20500;-52
2022/10/20 05:44:16;;;;;;;3.30;3.03;;;3.90;99.90;;;;;;4993874;28;20516;-51
2022/10/20 05:46:43;;;;;;;4.87;2.80;;;3.90;99.90;;;;;;4992244;28;20887;-51
2022/10/20 05:49:14;;;;;;;3.07;2.80;;;3.80;99.90;;;;;;4990091;28;20531;-52
2022/10/20 05:51:41;;;;;;;7.93;3.47;;;3.90;99.90;;;;;;4992854;28;20536;-51
2022/10/20 05:54:09;;;;;;;4.83;2.80;;;4.00;99.90;;;;;;4994361;28;20522;-51
2022/10/20 05:56:37;;;;;;;8.53;3.40;;;4.00;99.90;;;;;;4989967;28;20456;-52
2022/10/20 05:59:04;;;;;;;3.47;2.90;;;4.00;99.90;;;;;;4992362;28;20531;-52
2022/10/20 06:01:38;;;;;;;5.13;3.67;;;3.90;99.90;;;;;;4990331;28;20604;-51
2022/10/20 06:04:07;;;;;;;4.73;3.13;;;4.00;99.90;;;;;;4988694;28;20492;-52
2022/10/20 06:06:34;;;;;;;3.40;2.83;;;4.00;99.90;;;;;;4992031;28;20798;-52
2022/10/20 06:09:04;;;;;;;5.93;3.03;;;3.90;99.90;;;;;;4989337;28;20480;-52
2022/10/20 06:11:31;;;;;;;3.25;2.95;;;3.90;99.90;;;;;;4985995;28;20930;-52
2022/10/20 06:13:59;;;;;;;4.20;3.27;;;3.90;99.90;;;;;;4989372;28;20244;-51
2022/10/20 06:16:26;;;;;;;4.03;3.40;;;4.00;99.90;;;;;;4987338;28;20468;-52
2022/10/20 06:18:53;;;;;;;3.07;2.43;;;4.00;99.90;;;;;;4991537;28;20961;-53
2022/10/20 06:21:22;;;;;;;4.17;3.07;;;4.00;99.90;;;;;;4985690;28;20492;-52
2022/10/20 06:23:49;;;;;;;3.77;3.00;;;4.10;99.90;;;;;;4983968;28;20978;-52
2022/10/20 06:26:19;;;;;;;4.10;2.77;;;4.10;99.90;;;;;;4985820;28;20500;-52
2022/10/20 06:28:47;;;;;;;6.20;2.93;;;4.10;99.90;;;;;;4984203;28;20594;-52
2022/10/20 06:31:17;;;;;;;9.70;2.90;;;4.10;99.90;;;;;;4983263;28;20484;-52
2022/10/20 06:33:44;;;;;;;13.77;3.10;;;4.20;99.90;;;;;;4987806;28;20476;-52
2022/10/20 06:36:12;;;;;;;4.57;3.20;;;4.20;99.90;;;;;;4989375;28;20488;-52
2022/10/20 06:38:39;;;;;;;4.57;3.03;;;4.30;99.90;;;;;;4988070;28;20571;-52
2022/10/20 06:41:08;;;;;;;5.60;3.60;;;4.30;99.90;;;;;;4989910;28;20472;-52
2022/10/20 06:43:35;;;;;;;4.40;3.90;;;4.40;99.90;;;;;;4991350;28;20477;-49
2022/10/20 06:46:04;;;;;;;4.40;2.97;;;4.40;99.90;;;;;;4988268;28;22474;-48
2022/10/20 06:48:34;;;;;;;3.57;3.27;;;4.50;74.60;;;;;;4984848;28;21013;-48
2022/10/20 06:51:02;;;;;;;6.30;4.03;;;4.50;21.00;;;;;;4985196;28;20547;-49
2022/10/20 06:53:29;;;;;;;5.67;4.50;;;4.60;21.50;;;;;;4985718;28;21102;-48
2022/10/20 06:55:57;;;;;;;4.70;4.17;;;4.60;21.70;;;;;;4983250;28;20457;-48
2022/10/20 06:58:24;;;;;;;5.57;4.10;;;4.70;23.10;;;;;;4987108;28;20536;-48
2022/10/20 07:00:59;;;;;;;8.13;3.90;;;4.80;27.30;;;;;;4986532;28;20550;-48
2022/10/20 07:03:26;;;;;;;7.90;4.50;;;4.90;25.20;;;;;;4988177;28;20467;-49
2022/10/20 07:05:54;;;;;;;4.17;3.80;;;5.10;31.70;;;;;;4982291;28;20496;-49
2022/10/20 07:08:20;;;;;;;6.03;4.17;;;5.20;35.30;;;;;;4985582;28;21207;-48
2022/10/20 07:10:47;;;;;;;5.90;4.17;;;5.20;39.50;;;;;;4987692;28;20500;-48
2022/10/20 07:13:14;;;;;;;10.10;4.50;;;5.40;43.30;;;;;;4987440;28;20492;-48
2022/10/20 07:15:40;;;;;;;6.67;4.87;;;5.50;46.60;;;;;;4988751;28;20491;-50
2022/10/20 07:18:07;;;;;;;6.60;4.70;;;5.60;53.20;;;;;;4987268;28;20991;-48
2022/10/20 07:20:33;;;;;;;7.50;4.63;;;5.70;58.00;;;;;;4987696;28;21013;-49
2022/10/20 07:23:01;;;;;;;10.53;5.50;;;5.80;65.80;;;;;;4988868;28;20523;-51
2022/10/20 07:25:29;;;;;;;10.00;6.20;;;5.90;75.20;;;;;;4990542;28;21029;-51
2022/10/20 07:27:56;;;;;;;6.33;4.93;;;6.10;78.10;;;;;;4987753;28;21018;-49
2022/10/20 07:30:22;;;;;;;6.43;5.17;;;6.40;98.60;;;;;;4986737;28;20501;-51
2022/10/20 07:32:49;;;;;;;6.70;5.23;;;6.50;99.90;;;;;;4989448;28;20484;-50
2022/10/20 07:35:15;;;;;;;5.77;5.00;;;6.60;99.90;;;;;;4985649;28;20515;-51
2022/10/20 07:37:42;;;;;;;9.00;5.33;;;6.70;99.90;;;;;;4987187;28;20524;-50
2022/10/20 07:40:11;;;;;;;6.00;5.20;;;6.90;99.90;;;;;;4989316;28;21180;-50
2022/10/20 07:42:38;;;;;;;5.93;5.33;;;7.00;99.90;;;;;;4989379;28;21053;-51
2022/10/20 07:45:05;;;;;;;6.70;5.33;;;7.00;99.90;;;;;;4985266;28;20524;-51
2022/10/20 07:47:32;;;;;;;7.97;5.37;;;7.10;99.90;;;;;;4988471;28;20535;-51
2022/10/20 07:49:58;;;;;;;5.90;4.80;;;7.10;99.90;;;;;;4992591;28;20453;-51
2022/10/20 07:52:25;;;;;;;6.37;5.03;;;7.20;99.90;;;;;;4988553;28;20555;-51
2022/10/20 07:54:51;;;;;;;4.63;4.20;;;7.40;99.90;;;;;;4987929;28;20508;-51
2022/10/20 07:57:19;;;;;;;5.50;4.80;;;7.60;99.90;;;;;;4987225;28;20512;-51
2022/10/20 07:59:46;;;;;;;6.50;5.80;;;7.60;99.90;;;;;;4990378;28;20488;-51
2022/10/20 08:02:14;;;;;;;7.20;4.90;;;7.80;99.90;;;;;;4991249;28;20492;-51
2022/10/20 08:04:42;;;;;;;5.53;4.73;;;8.00;99.90;;;;;;4987298;28;20492;-52
2022/10/20 08:07:09;;;;;;;7.67;5.03;;;8.30;99.90;;;;;;4991686;28;20563;-52
2022/10/20 08:09:36;;;;;;;6.53;5.87;;;8.30;99.90;;;;;;4987942;28;20492;-52
2022/10/20 08:12:03;;;;;;;5.07;4.57;;;8.40;99.90;;;;;;4989809;28;20592;-53
2022/10/20 08:14:33;;;;;;;6.70;4.60;;;8.30;99.90;;;;;;4986245;28;20543;-52
2022/10/20 08:17:00;;;;;;;8.90;5.33;;;8.40;99.90;;;;;;4986229;28;20460;-52
2022/10/20 08:19:27;;;;;;;8.50;5.40;;;8.40;99.90;;;;;;4983486;28;20995;-51
2022/10/20 08:21:54;;;;;;;6.90;5.30;;;8.60;99.90;;;;;;4988627;28;20990;-53
2022/10/20 08:24:21;;;;;;;5.67;4.47;;;8.60;99.90;;;;;;4985562;28;20578;-51
2022/10/20 08:26:47;;;;;;;5.43;4.93;;;8.80;99.90;;;;;;4987106;28;20527;-52
2022/10/20 08:29:14;;;;;;;6.63;4.73;;;9.00;99.90;;;;;;4987933;28;20488;-52
2022/10/20 08:31:43;;;;;;;5.00;4.50;;;9.20;99.90;;;;;;4987763;28;20484;-52
2022/10/20 08:34:10;;;;;;;10.83;5.47;;;9.30;99.90;;;;;;4987613;28;20939;-52
2022/10/20 08:36:37;;;;;;;7.50;4.43;;;9.50;99.90;;;;;;4983709;28;20500;-52
2022/10/20 08:39:03;;;;;;;7.70;4.83;;;9.60;99.90;;;;;;4986217;28;21270;-52
2022/10/20 08:41:32;;;;;;;6.23;4.80;;;9.80;99.90;;;;;;4989133;28;20520;-52
2022/10/20 08:44:02;;;;;;;8.23;5.33;;;10.00;99.90;;;;;;4987628;28;20468;-52
2022/10/20 08:46:31;;;;;;;6.97;4.90;;;10.40;99.90;;;;;;4985796;28;20891;-52
2022/10/20 08:49:00;;;;;;;7.33;4.67;;;10.60;32.60;;;;;;4989938;28;20488;-52
2022/10/20 08:51:31;;;;;;;9.37;5.27;;;10.80;37.70;;;;;;4988675;28;20507;-52
2022/10/20 08:53:59;;;;;;;6.07;4.57;;;10.90;25.90;;;;;;4990087;28;20460;-52
2022/10/20 08:56:30;;;;;;;4.97;4.47;;;11.40;52.20;;;;;;4993029;28;20461;-52
2022/10/20 08:58:57;;;;;;;5.40;4.87;;;11.70;63.10;;;;;;4990356;28;20851;-52
2022/10/20 09:01:28;;;;;;;8.83;5.13;;;11.80;66.90;;;;;;4989217;28;20492;-52
2022/10/20 09:03:57;;;;;;;5.47;4.40;;;12.40;86.50;;;;;;4988434;28;20970;-51
2022/10/20 09:06:25;;;;;;;7.10;3.97;;;12.50;94.20;;;;;;4984140;28;20512;-53
2022/10/20 09:08:52;;;;;;;7.60;4.50;;;13.20;99.90;;;;;;4989010;28;20487;-52
2022/10/20 09:11:23;;;;;;;8.33;4.80;;;13.20;97.00;;;;;;4985063;28;20508;-53
2022/10/20 09:13:50;;;;;;;7.73;4.03;;;12.50;90.40;;;;;;4989952;28;20492;-52
2022/10/20 09:16:26;;;;;;;6.63;4.80;;;12.10;96.50;;;;;;4992248;28;22527;-52
2022/10/20 09:18:57;;;;;;;6.27;4.33;;;12.70;96.90;;;;;;4993315;28;20534;-53
2022/10/20 09:21:25;;;;;;;6.60;5.80;;;12.60;97.80;;;;;;4993267;28;20484;-52
2022/10/20 09:23:54;;;;;;;5.33;4.10;;;12.40;88.40;;;;;;4991936;28;20974;-53
2022/10/20 09:26:32;;;;;;;8.83;4.80;;;12.90;92.70;;;;;;4992116;28;20516;-53
2022/10/20 09:29:05;;;;;;;10.83;5.73;;;13.70;99.90;;;;;;4986908;28;20542;-52
2022/10/20 09:31:33;;;;;;;6.60;4.70;;;14.70;99.90;;;;;;4985956;28;20507;-52
2022/10/20 09:34:00;;;;;;;7.00;4.50;;;14.50;99.90;;;;;;4985016;28;20546;-52
2022/10/20 09:36:31;;;;;;;7.17;4.73;;;14.50;99.90;;;;;;4989199;28;20456;-53
2022/10/20 09:38:57;;;;;;;8.63;4.80;;;14.70;99.90;;;;;;4985982;28;20575;-52
2022/10/20 09:41:27;;;;;;;3.80;3.47;;;14.60;99.90;;;;;;4987334;28;20902;-50
2022/10/20 09:43:56;;;;;;;8.77;4.63;;;13.80;99.90;;;;;;4992399;28;20488;-51
2022/10/20 09:46:26;;;;;;;8.50;4.70;;;14.30;99.90;;;;;;4987867;28;20516;-50
2022/10/20 09:48:53;;;;;;;8.07;4.37;;;14.30;99.90;;;;;;4990509;28;20559;-51
2022/10/20 09:51:22;;;;;;;5.27;3.80;;;14.80;99.90;;;;;;4990943;28;20753;-51
2022/10/20 09:53:58;;;;;;;5.87;4.00;;;15.40;99.90;;;;;;4991144;28;20460;-51
2022/10/20 09:56:31;;;;;;;4.40;3.80;;;15.70;99.90;;;;;;4989333;28;20480;-50
2022/10/20 09:58:59;;;;;;;7.03;3.60;;;15.50;99.90;;;;;;4990173;28;20519;-51
2022/10/20 10:01:26;;;;;;;9.53;3.87;;;14.70;99.90;;;;;;4986482;28;20924;-50
2022/10/20 10:03:58;;;;;;;5.43;4.57;;;13.40;99.90;;;;;;4991433;28;20484;-51
2022/10/20 10:06:32;;;;;;;4.23;3.70;;;13.30;99.90;;;;;;4989019;28;20484;-50
2022/10/20 10:09:01;;;;;;;6.60;3.63;;;13.00;99.90;;;;;;4986942;28;20531;-51
2022/10/20 10:11:33;;;;;;;5.70;3.37;;;12.80;99.90;;;;;;4987671;28;21042;-50
2022/10/20 10:14:01;;;;;;;11.93;3.40;;;12.90;98.30;;;;;;4989366;28;20475;-50
2022/10/20 10:16:28;;;;;;;3.63;3.30;;;12.90;95.00;;;;;;4987990;28;20484;-51
2022/10/20 10:18:59;;;;;;;7.07;3.13;;;12.90;96.60;;;;;;4988345;28;20508;-51
2022/10/20 10:21:26;;;;;;;8.10;4.93;;;12.80;95.90;;;;;;4985588;28;20464;-50
2022/10/20 10:23:55;;;;;;;3.43;2.63;;;12.90;95.00;;;;;;4983087;28;21046;-50
2022/10/20 10:26:53;;;;;;;6.90;2.60;;;13.10;99.70;;;;;;4985194;28;20512;-51
2022/10/20 10:29:25;;;;;;;5.73;2.53;;;13.00;99.90;;;;;;4962512;28;20465;-51
2022/10/20 10:31:57;;;;;;;6.83;2.50;;;13.00;99.90;;;;;;4983908;28;20974;-51
2022/10/20 10:34:38;;;;;;;10.93;3.17;;;13.00;99.90;;;;;;4988357;28;20464;-51
2022/10/20 10:37:06;;;;;;;5.43;2.43;;;12.90;99.90;;;;;;4987856;28;20635;-50
2022/10/20 10:39:35;;;;;;;2.70;2.50;;;12.90;99.90;;;;;;4989821;28;20895;-50
2022/10/20 10:42:30;;;;;;;4.83;2.87;;;12.70;99.90;;;;;;4989957;28;20994;-51
2022/10/20 10:45:06;;;;;;;2.50;2.30;;;12.90;97.90;;;;;;4988289;28;20535;-51
2022/10/20 10:48:02;;;;;;;2.60;2.40;;;13.00;99.90;;;;;;4990084;28;21017;-51
2022/10/20 10:50:37;;;;;;;3.83;2.60;;;13.10;99.80;;;;;;4994183;28;20491;-51
2022/10/20 10:53:17;;;;;;;5.23;3.10;;;13.10;99.60;;;;;;4985504;28;20492;-51
2022/10/20 10:55:52;;;;;;;3.67;3.17;;;13.10;99.90;;;;;;4989444;28;20550;-51
2022/10/20 10:58:33;;;;;;;2.17;2.07;;;13.20;99.90;;;;;;4988394;28;20484;-50
2022/10/20 11:01:08;;;;;;;5.43;3.10;;;13.10;99.90;;;;;;4991706;28;20557;-50
2022/10/20 11:04:13;;;;;;;5.43;3.10;;;13.00;99.90;;;;;;4989156;28;20483;-50
2022/10/20 11:06:50;;;;;;;3.00;2.37;;;13.10;99.90;;;;;;4964823;28;20543;-51
2022/10/20 11:09:27;;;;;;;3.23;2.47;;;13.20;99.90;;;;;;4988471;28;20500;-51
2022/10/20 11:12:21;;;;;;;8.47;3.63;;;13.10;99.90;;;;;;4986258;28;20503;-50
2022/10/20 11:15:03;;;;;;;10.40;3.00;;;13.20;99.90;;;;;;4984130;28;20499;-51
2022/10/20 11:17:44;;;;;;;3.70;3.30;;;13.30;99.90;;;;;;4991090;28;20702;-51
2022/10/20 11:20:24;;;;;;;3.03;2.73;;;13.40;99.90;;;;;;4989577;28;20492;-50
2022/10/20 11:23:09;;;;;;;6.47;3.60;;;13.60;99.90;;;;;;4989317;28;20495;-51
2022/10/20 11:25:43;;;;;;;4.33;3.17;;;13.70;99.90;;;;;;4985738;28;20484;-50
2022/10/20 11:28:23;;;;;;;3.77;3.47;;;13.60;99.90;;;;;;4985545;28;20487;-51
2022/10/20 11:30:51;;;;;;;4.83;2.97;;;13.50;99.90;;;;;;4984408;28;21060;-51
2022/10/20 11:33:22;;;;;;;4.80;3.03;;;13.40;99.90;;;;;;4987356;28;20543;-51
2022/10/20 11:35:54;;;;;;;11.03;2.83;;;13.40;99.90;;;;;;4977953;28;20489;-51
2022/10/20 11:38:30;;;;;;;2.83;2.63;;;13.50;99.90;;;;;;4985641;28;20495;-49
2022/10/20 11:41:01;;;;;;;3.80;2.70;;;13.40;99.90;;;;;;4989967;28;20575;-52
2022/10/20 11:43:34;;;;;;;4.10;2.80;;;13.50;99.90;;;;;;4986158;28;20499;-51
2022/10/20 11:46:05;;;;;;;5.30;3.00;;;13.70;99.90;;;;;;4986250;28;20527;-50
2022/10/20 11:48:36;;;;;;;3.60;2.90;;;13.60;99.90;;;;;;4988417;28;21006;-51
2022/10/20 11:51:28;;;;;;;5.03;2.60;;;13.60;99.90;;;;;;4987006;28;20547;-50
2022/10/20 11:54:20;;;;;;;3.50;2.53;;;13.60;99.90;;;;;;4985027;28;20530;-51
2022/10/20 11:57:11;;;;;;;3.97;2.87;;;14.00;99.90;;;;;;4986091;28;20499;-51
2022/10/20 12:00:08;;;;;;;3.30;2.90;;;14.10;99.90;;;;;;4990219;28;21051;-50
2022/10/20 12:03:07;;;;;;;5.53;3.37;;;13.80;99.90;;;;;;4981445;28;20551;-50
2022/10/20 12:06:06;;;;;;;4.03;3.17;;;14.00;99.90;;;;;;4986230;28;20512;-51
2022/10/20 12:08:57;;;;;;;3.00;2.80;;;14.00;99.90;;;;;;4988410;28;20504;-51
2022/10/20 12:11:29;;;;;;;4.73;2.57;;;14.20;99.90;;;;;;4987502;28;20628;-51
2022/10/20 12:14:06;;;;;;;4.50;3.30;;;14.10;99.90;;;;;;4989116;28;20492;-51
2022/10/20 12:17:14;;;;;;;18.30;3.70;;;14.00;99.90;;;;;;4985641;28;20493;-51
2022/10/20 12:19:43;;;;;;;7.87;3.00;;;13.70;99.90;;;;;;4980297;28;20461;-50
2022/10/20 12:22:38;;;;;;;3.77;3.20;;;14.00;99.90;;;;;;4979926;28;20457;-50
2022/10/20 12:25:36;;;;;;;7.03;3.80;;;14.30;99.90;;;;;;4991665;28;20460;-49
2022/10/20 12:28:47;;;;;;;10.77;4.27;;;14.30;99.90;;;;;;4990722;28;21143;-49
2022/10/20 12:31:14;;;;;;;3.83;3.03;;;14.20;99.90;;;;;;4989165;28;20558;-50
2022/10/20 12:33:58;;;;;;;4.70;3.30;;;14.20;99.90;;;;;;4993299;28;20496;-50
2022/10/20 12:36:32;;;;;;;4.90;3.13;;;14.20;99.90;;;;;;4993624;28;20546;-50
2022/10/20 12:39:15;;;;;;;6.43;3.00;;;14.10;99.90;;;;;;4991959;28;20537;-49
2022/10/20 12:41:53;;;;;;;2.83;2.63;;;14.10;99.90;;;;;;4983242;28;20943;-50
2022/10/20 12:44:21;;;;;;;6.53;3.10;;;14.10;99.90;;;;;;4989419;28;20501;-49
2022/10/20 12:46:53;;;;;;;6.10;2.67;;;14.30;99.90;;;;;;4990841;28;20542;-49
2022/10/20 12:49:24;;;;;;;3.20;2.47;;;14.30;99.90;;;;;;4991254;28;20456;-48
2022/10/20 12:51:54;;;;;;;5.27;3.40;;;14.40;99.90;;;;;;4988639;28;20495;-49
2022/10/20 12:54:24;;;;;;;2.93;2.73;;;14.30;99.90;;;;;;4990541;28;20970;-49
2022/10/20 12:56:56;;;;;;;4.40;2.97;;;14.40;99.90;;;;;;4990600;28;20460;-49
2022/10/20 12:59:34;;;;;;;3.17;2.57;;;14.50;99.90;;;;;;4989955;28;20861;-49
2022/10/20 13:02:30;;;;;;;3.10;2.80;;;14.60;99.90;;;;;;4989160;28;20464;-49
2022/10/20 13:04:58;;;;;;;2.00;1.90;;;14.70;99.90;;;;;;4987675;28;20457;-49
2022/10/20 13:08:00;;;;;;;3.87;2.40;;;14.80;99.90;;;;;;4992334;28;20512;-49
2022/10/20 13:10:33;;;;;;;2.77;1.90;;;15.00;99.90;;;;;;4988426;28;20471;-49
2022/10/20 13:13:37;;;;;;;2.67;2.47;;;15.00;99.90;;;;;;4987496;28;20511;-49